Nearby METAR Reports

 

KMSY - New Orleans,Louisiana, USA
Distance from station: E 11.7mi, 18.8km
Updated: Mon, 19-Nov-2018 4:53pm CST
Light rain, Overcast
Light rain, Overcast
 Wind from NNE
Wind: NNE 5 mph , 7 km/h
Temperature: 61°F , 16°C
Dew Point: 57°F , 14°C
Humidity: 88%
Barometer: 30.12 inHg , 1020 hPa
Summary: Light rain
Clouds: Overcast
Visibility: 7 miles , 11 km
Cloud details: Overcast 8000 ft
2018/11/19 22:53 KMSY 192253Z 03004KT 7SM -RA OVC080 16/14 A3012 RMK AO2 RAB02 SLP202 P0001 T01610144
KAPS - Reserve,Louisiana, USA
Distance from station: W 8.4mi, 13.5km
Updated: Mon, 19-Nov-2018 5:35pm CST
Light rain, Overcast
Light rain, Overcast
 Wind from E
Wind: E 3 mph , 6 km/h
Temperature: 61°F , 16°C
Dew Point: 57°F , 14°C
Humidity: 88%
Barometer: 30.10 inHg , 1019.3 hPa
Summary: Light rain
Clouds: Overcast
Visibility: 10 miles , 16 km
Cloud details: Partly cloudy 3600 ft
Partly cloudy 5500 ft
Overcast 9000 ft
2018/11/19 23:35 KAPS 192335Z AUTO 08003KT 10SM -RA SCT036 SCT055 OVC090 16/14 A3010 RMK AO2 P0005 T01550137
 
KHDC - Hammond,Louisiana, USA
Distance from station: N 31.5mi, 50.6km
Updated: Mon, 19-Nov-2018 5:35pm CST
Partly cloudy
Partly cloudy
 Wind from calm
Wind: Calm
Temperature: 57°F , 14°C
Dew Point: 54°F , 12°C
Humidity: 88%
Barometer: 30.12 inHg , 1020 hPa
Clouds: Partly cloudy
Visibility: 10 miles , 16 km
Cloud details: Partly cloudy 12000 ft
2018/11/19 23:35 KHDC 192335Z AUTO 00000KT 10SM SCT120 14/12 A3012 RMK AO2
KHUM - Houma,Louisiana, USA
Distance from station: SW 36.54mi, 58.8km
Updated: Mon, 19-Nov-2018 4:46pm CST
Overcast
Overcast
 Wind from calm
Wind: Calm
Temperature: 63°F , 17°C
Dew Point: 57°F , 14°C
Humidity: 83%
Barometer: 30.11 inHg , 1019.6 hPa
Clouds: Overcast
Visibility: 7 miles , 11 km
Cloud details: Overcast 10000 ft
2018/11/19 22:46 KHUM 192246Z 00000KT 7SM OVC100 17/14 A3011